sensor_id;sensor_type;location;lat;lon;timestamp;P1;durP1;ratioP1;P2;durP2;ratioP2
22849;SDS011;11591;44.792;10.358;2022-12-24T00:00:32;66.75;;;29.38;;
22849;SDS011;11591;44.792;10.358;2022-12-24T00:02:58;70.20;;;30.42;;
22849;SDS011;11591;44.792;10.358;2022-12-24T00:05:24;69.57;;;30.20;;
22849;SDS011;11591;44.792;10.358;2022-12-24T00:07:50;71.45;;;29.17;;
22849;SDS011;11591;44.792;10.358;2022-12-24T00:10:16;70.97;;;30.98;;
22849;SDS011;11591;44.792;10.358;2022-12-24T00:12:42;73.57;;;31.23;;
22849;SDS011;11591;44.792;10.358;2022-12-24T00:15:08;75.75;;;31.00;;
22849;SDS011;11591;44.792;10.358;2022-12-24T00:17:34;72.50;;;29.75;;
22849;SDS011;11591;44.792;10.358;2022-12-24T00:20:00;74.18;;;30.20;;
22849;SDS011;11591;44.792;10.358;2022-12-24T00:22:26;72.55;;;29.58;;
22849;SDS011;11591;44.792;10.358;2022-12-24T00:24:52;73.32;;;30.55;;
22849;SDS011;11591;44.792;10.358;2022-12-24T00:27:18;71.75;;;29.70;;
22849;SDS011;11591;44.792;10.358;2022-12-24T00:29:43;78.50;;;31.83;;
22849;SDS011;11591;44.792;10.358;2022-12-24T00:32:09;72.35;;;31.00;;
22849;SDS011;11591;44.792;10.358;2022-12-24T00:34:35;74.53;;;29.95;;
22849;SDS011;11591;44.792;10.358;2022-12-24T00:37:02;78.13;;;31.40;;
22849;SDS011;11591;44.792;10.358;2022-12-24T00:39:28;78.25;;;31.55;;
22849;SDS011;11591;44.792;10.358;2022-12-24T00:41:54;75.50;;;33.00;;
22849;SDS011;11591;44.792;10.358;2022-12-24T00:44:20;78.20;;;32.70;;
22849;SDS011;11591;44.792;10.358;2022-12-24T00:46:46;81.20;;;33.78;;
22849;SDS011;11591;44.792;10.358;2022-12-24T00:49:11;83.07;;;34.30;;
22849;SDS011;11591;44.792;10.358;2022-12-24T00:51:37;80.88;;;33.35;;
22849;SDS011;11591;44.792;10.358;2022-12-24T00:54:03;90.82;;;35.15;;
22849;SDS011;11591;44.792;10.358;2022-12-24T00:56:30;88.20;;;34.65;;
22849;SDS011;11591;44.792;10.358;2022-12-24T00:58:56;79.90;;;34.70;;
22849;SDS011;11591;44.792;10.358;2022-12-24T01:01:22;75.15;;;32.38;;
22849;SDS011;11591;44.792;10.358;2022-12-24T01:03:49;85.85;;;34.38;;
22849;SDS011;11591;44.792;10.358;2022-12-24T01:06:17;86.80;;;34.08;;
22849;SDS011;11591;44.792;10.358;2022-12-24T01:08:44;84.15;;;34.80;;
22849;SDS011;11591;44.792;10.358;2022-12-24T01:11:13;88.22;;;37.00;;
22849;SDS011;11591;44.792;10.358;2022-12-24T01:13:39;80.57;;;34.88;;
22849;SDS011;11591;44.792;10.358;2022-12-24T01:16:12;88.88;;;36.33;;
22849;SDS011;11591;44.792;10.358;2022-12-24T01:18:42;88.72;;;34.83;;
22849;SDS011;11591;44.792;10.358;2022-12-24T01:21:08;91.53;;;37.13;;
22849;SDS011;11591;44.792;10.358;2022-12-24T01:23:34;88.43;;;37.72;;
22849;SDS011;11591;44.792;10.358;2022-12-24T01:26:01;86.57;;;35.78;;
22849;SDS011;11591;44.792;10.358;2022-12-24T01:28:27;88.88;;;35.65;;
22849;SDS011;11591;44.792;10.358;2022-12-24T01:30:53;80.93;;;34.55;;
22849;SDS011;11591;44.792;10.358;2022-12-24T01:33:19;87.70;;;36.70;;
22849;SDS011;11591;44.792;10.358;2022-12-24T01:35:45;92.75;;;37.63;;
22849;SDS011;11591;44.792;10.358;2022-12-24T01:38:11;80.45;;;35.05;;
22849;SDS011;11591;44.792;10.358;2022-12-24T01:40:38;87.82;;;35.65;;
22849;SDS011;11591;44.792;10.358;2022-12-24T01:43:24;92.85;;;36.40;;
22849;SDS011;11591;44.792;10.358;2022-12-24T01:45:55;91.13;;;37.95;;
22849;SDS011;11591;44.792;10.358;2022-12-24T01:53:47;94.60;;;37.97;;
22849;SDS011;11591;44.792;10.358;2022-12-24T01:56:17;89.30;;;37.20;;
22849;SDS011;11591;44.792;10.358;2022-12-24T01:58:45;100.55;;;38.33;;
22849;SDS011;11591;44.792;10.358;2022-12-24T02:01:14;91.63;;;38.08;;
22849;SDS011;11591;44.792;10.358;2022-12-24T02:03:41;95.15;;;38.35;;
22849;SDS011;11591;44.792;10.358;2022-12-24T02:06:07;92.90;;;37.90;;
22849;SDS011;11591;44.792;10.358;2022-12-24T02:08:34;94.55;;;38.30;;
22849;SDS011;11591;44.792;10.358;2022-12-24T02:11:14;92.35;;;38.35;;
22849;SDS011;11591;44.792;10.358;2022-12-24T02:13:52;88.47;;;36.78;;
22849;SDS011;11591;44.792;10.358;2022-12-24T02:19:12;86.28;;;36.45;;
22849;SDS011;11591;44.792;10.358;2022-12-24T02:22:11;78.38;;;33.63;;
22849;SDS011;11591;44.792;10.358;2022-12-24T02:27:28;90.10;;;36.35;;
22849;SDS011;11591;44.792;10.358;2022-12-24T02:30:21;88.60;;;35.55;;
22849;SDS011;11591;44.792;10.358;2022-12-24T02:38:38;81.45;;;33.75;;
22849;SDS011;11591;44.792;10.358;2022-12-24T02:41:13;76.35;;;33.50;;
22849;SDS011;11591;44.792;10.358;2022-12-24T02:43:44;88.28;;;35.63;;
22849;SDS011;11591;44.792;10.358;2022-12-24T02:46:12;91.25;;;36.75;;
22849;SDS011;11591;44.792;10.358;2022-12-24T02:48:44;86.40;;;35.72;;
22849;SDS011;11591;44.792;10.358;2022-12-24T02:51:12;83.78;;;35.53;;
22849;SDS011;11591;44.792;10.358;2022-12-24T02:53:38;88.90;;;36.40;;
22849;SDS011;11591;44.792;10.358;2022-12-24T02:59:08;87.72;;;35.47;;
22849;SDS011;11591;44.792;10.358;2022-12-24T03:04:35;85.18;;;34.88;;
22849;SDS011;11591;44.792;10.358;2022-12-24T03:07:22;87.72;;;35.00;;
22849;SDS011;11591;44.792;10.358;2022-12-24T03:09:55;77.65;;;32.25;;
22849;SDS011;11591;44.792;10.358;2022-12-24T03:12:49;84.22;;;33.75;;
22849;SDS011;11591;44.792;10.358;2022-12-24T03:15:19;75.55;;;32.70;;
22849;SDS011;11591;44.792;10.358;2022-12-24T03:17:48;79.75;;;33.60;;
22849;SDS011;11591;44.792;10.358;2022-12-24T03:20:18;75.80;;;34.00;;
22849;SDS011;11591;44.792;10.358;2022-12-24T03:22:47;81.68;;;33.65;;
22849;SDS011;11591;44.792;10.358;2022-12-24T03:25:13;77.22;;;33.20;;
22849;SDS011;11591;44.792;10.358;2022-12-24T03:27:39;81.13;;;34.22;;
22849;SDS011;11591;44.792;10.358;2022-12-24T03:30:09;80.30;;;34.15;;
22849;SDS011;11591;44.792;10.358;2022-12-24T03:32:37;75.38;;;32.70;;
22849;SDS011;11591;44.792;10.358;2022-12-24T03:35:03;79.13;;;33.97;;
22849;SDS011;11591;44.792;10.358;2022-12-24T03:37:30;83.03;;;34.72;;
22849;SDS011;11591;44.792;10.358;2022-12-24T03:39:55;78.75;;;33.15;;
22849;SDS011;11591;44.792;10.358;2022-12-24T03:42:21;77.45;;;32.83;;
22849;SDS011;11591;44.792;10.358;2022-12-24T03:44:47;84.85;;;35.85;;
22849;SDS011;11591;44.792;10.358;2022-12-24T03:47:13;79.93;;;33.45;;
22849;SDS011;11591;44.792;10.358;2022-12-24T03:49:38;79.80;;;33.00;;
22849;SDS011;11591;44.792;10.358;2022-12-24T03:52:04;74.10;;;32.67;;
22849;SDS011;11591;44.792;10.358;2022-12-24T03:54:30;65.85;;;31.52;;
22849;SDS011;11591;44.792;10.358;2022-12-24T03:56:56;75.20;;;30.90;;
22849;SDS011;11591;44.792;10.358;2022-12-24T03:59:22;68.75;;;31.77;;
22849;SDS011;11591;44.792;10.358;2022-12-24T04:01:47;72.43;;;31.58;;
22849;SDS011;11591;44.792;10.358;2022-12-24T04:04:14;78.40;;;32.15;;
22849;SDS011;11591;44.792;10.358;2022-12-24T04:06:40;71.78;;;30.42;;
22849;SDS011;11591;44.792;10.358;2022-12-24T04:09:06;77.18;;;31.70;;
22849;SDS011;11591;44.792;10.358;2022-12-24T04:11:32;72.90;;;31.20;;
22849;SDS011;11591;44.792;10.358;2022-12-24T04:13:58;78.82;;;32.85;;
22849;SDS011;11591;44.792;10.358;2022-12-24T04:16:24;78.38;;;32.17;;
22849;SDS011;11591;44.792;10.358;2022-12-24T04:18:50;78.18;;;33.83;;
22849;SDS011;11591;44.792;10.358;2022-12-24T04:21:16;78.60;;;32.05;;
22849;SDS011;11591;44.792;10.358;2022-12-24T04:23:42;68.43;;;29.73;;
22849;SDS011;11591;44.792;10.358;2022-12-24T04:26:09;69.97;;;30.25;;
22849;SDS011;11591;44.792;10.358;2022-12-24T04:28:37;74.20;;;30.92;;
22849;SDS011;11591;44.792;10.358;2022-12-24T04:31:05;65.15;;;29.40;;
22849;SDS011;11591;44.792;10.358;2022-12-24T04:33:33;73.03;;;30.73;;
22849;SDS011;11591;44.792;10.358;2022-12-24T04:36:00;77.03;;;32.97;;
22849;SDS011;11591;44.792;10.358;2022-12-24T04:38:27;72.95;;;31.80;;
22849;SDS011;11591;44.792;10.358;2022-12-24T04:40:58;69.15;;;31.77;;
22849;SDS011;11591;44.792;10.358;2022-12-24T04:43:29;74.90;;;34.28;;
22849;SDS011;11591;44.792;10.358;2022-12-24T04:45:55;79.80;;;32.40;;
22849;SDS011;11591;44.792;10.358;2022-12-24T04:48:27;79.18;;;31.80;;
22849;SDS011;11591;44.792;10.358;2022-12-24T04:50:53;74.97;;;32.55;;
22849;SDS011;11591;44.792;10.358;2022-12-24T04:53:19;73.00;;;32.33;;
22849;SDS011;11591;44.792;10.358;2022-12-24T04:55:45;73.93;;;32.50;;
22849;SDS011;11591;44.792;10.358;2022-12-24T04:58:11;81.65;;;32.88;;
22849;SDS011;11591;44.792;10.358;2022-12-24T05:00:37;78.60;;;34.55;;
22849;SDS011;11591;44.792;10.358;2022-12-24T05:03:04;93.32;;;37.17;;
22849;SDS011;11591;44.792;10.358;2022-12-24T05:05:29;83.97;;;34.53;;
22849;SDS011;11591;44.792;10.358;2022-12-24T05:07:55;77.75;;;34.25;;
22849;SDS011;11591;44.792;10.358;2022-12-24T05:10:21;82.38;;;36.00;;
22849;SDS011;11591;44.792;10.358;2022-12-24T05:12:47;85.85;;;36.20;;
22849;SDS011;11591;44.792;10.358;2022-12-24T05:15:12;80.13;;;34.38;;
22849;SDS011;11591;44.792;10.358;2022-12-24T05:17:38;86.60;;;35.60;;
22849;SDS011;11591;44.792;10.358;2022-12-24T05:20:04;85.28;;;35.88;;
22849;SDS011;11591;44.792;10.358;2022-12-24T05:22:30;87.72;;;34.60;;
22849;SDS011;11591;44.792;10.358;2022-12-24T05:25:15;83.15;;;33.88;;
22849;SDS011;11591;44.792;10.358;2022-12-24T05:27:59;90.45;;;34.50;;
22849;SDS011;11591;44.792;10.358;2022-12-24T05:30:25;84.82;;;35.05;;
22849;SDS011;11591;44.792;10.358;2022-12-24T05:32:51;87.68;;;35.17;;
22849;SDS011;11591;44.792;10.358;2022-12-24T05:35:16;86.47;;;34.25;;
22849;SDS011;11591;44.792;10.358;2022-12-24T05:37:42;89.03;;;34.80;;
22849;SDS011;11591;44.792;10.358;2022-12-24T05:40:08;90.63;;;36.03;;
22849;SDS011;11591;44.792;10.358;2022-12-24T05:42:34;89.50;;;35.75;;
22849;SDS011;11591;44.792;10.358;2022-12-24T05:45:00;97.65;;;37.25;;
22849;SDS011;11591;44.792;10.358;2022-12-24T05:47:26;88.32;;;36.55;;
22849;SDS011;11591;44.792;10.358;2022-12-24T05:49:51;100.82;;;40.05;;
22849;SDS011;11591;44.792;10.358;2022-12-24T05:52:17;90.97;;;36.40;;
22849;SDS011;11591;44.792;10.358;2022-12-24T05:54:43;89.32;;;35.25;;
22849;SDS011;11591;44.792;10.358;2022-12-24T05:57:09;90.13;;;36.60;;
22849;SDS011;11591;44.792;10.358;2022-12-24T05:59:34;93.75;;;37.88;;
22849;SDS011;11591;44.792;10.358;2022-12-24T06:02:00;88.45;;;35.75;;
22849;SDS011;11591;44.792;10.358;2022-12-24T06:04:26;93.75;;;37.53;;
22849;SDS011;11591;44.792;10.358;2022-12-24T06:06:52;91.55;;;37.15;;
22849;SDS011;11591;44.792;10.358;2022-12-24T06:09:17;82.15;;;35.17;;
22849;SDS011;11591;44.792;10.358;2022-12-24T06:11:43;97.75;;;37.03;;
22849;SDS011;11591;44.792;10.358;2022-12-24T06:14:09;90.70;;;35.78;;
22849;SDS011;11591;44.792;10.358;2022-12-24T06:16:35;88.82;;;36.08;;
22849;SDS011;11591;44.792;10.358;2022-12-24T06:19:01;101.45;;;39.67;;
22849;SDS011;11591;44.792;10.358;2022-12-24T06:21:26;93.93;;;37.42;;
22849;SDS011;11591;44.792;10.358;2022-12-24T06:23:52;97.90;;;36.90;;
22849;SDS011;11591;44.792;10.358;2022-12-24T06:26:19;89.75;;;36.63;;
22849;SDS011;11591;44.792;10.358;2022-12-24T06:28:46;89.15;;;35.30;;
22849;SDS011;11591;44.792;10.358;2022-12-24T06:31:14;86.43;;;36.22;;
22849;SDS011;11591;44.792;10.358;2022-12-24T06:33:42;83.18;;;34.22;;
22849;SDS011;11591;44.792;10.358;2022-12-24T06:36:08;88.82;;;36.70;;
22849;SDS011;11591;44.792;10.358;2022-12-24T06:38:38;94.22;;;37.55;;
22849;SDS011;11591;44.792;10.358;2022-12-24T06:41:04;90.90;;;35.72;;
22849;SDS011;11591;44.792;10.358;2022-12-24T06:43:31;87.72;;;35.00;;
22849;SDS011;11591;44.792;10.358;2022-12-24T06:46:00;94.78;;;36.97;;
22849;SDS011;11591;44.792;10.358;2022-12-24T06:48:27;87.78;;;36.40;;
22849;SDS011;11591;44.792;10.358;2022-12-24T06:50:53;83.00;;;35.95;;
22849;SDS011;11591;44.792;10.358;2022-12-24T06:53:19;90.53;;;38.80;;
22849;SDS011;11591;44.792;10.358;2022-12-24T06:55:44;97.25;;;36.22;;
22849;SDS011;11591;44.792;10.358;2022-12-24T06:58:10;83.85;;;34.40;;
22849;SDS011;11591;44.792;10.358;2022-12-24T07:00:36;89.18;;;37.90;;
22849;SDS011;11591;44.792;10.358;2022-12-24T07:03:02;91.97;;;36.33;;
22849;SDS011;11591;44.792;10.358;2022-12-24T07:05:28;84.63;;;34.65;;
22849;SDS011;11591;44.792;10.358;2022-12-24T07:07:54;83.20;;;35.20;;
22849;SDS011;11591;44.792;10.358;2022-12-24T07:10:20;79.63;;;34.95;;
22849;SDS011;11591;44.792;10.358;2022-12-24T07:12:46;86.78;;;36.05;;
22849;SDS011;11591;44.792;10.358;2022-12-24T07:15:13;87.05;;;35.47;;
22849;SDS011;11591;44.792;10.358;2022-12-24T07:17:40;84.35;;;34.78;;
22849;SDS011;11591;44.792;10.358;2022-12-24T07:20:06;81.80;;;35.05;;
22849;SDS011;11591;44.792;10.358;2022-12-24T07:22:34;79.07;;;35.28;;
22849;SDS011;11591;44.792;10.358;2022-12-24T07:25:00;80.65;;;33.58;;
22849;SDS011;11591;44.792;10.358;2022-12-24T07:27:25;82.18;;;34.85;;
22849;SDS011;11591;44.792;10.358;2022-12-24T07:29:51;81.72;;;34.50;;
22849;SDS011;11591;44.792;10.358;2022-12-24T07:32:17;82.88;;;34.28;;
22849;SDS011;11591;44.792;10.358;2022-12-24T07:34:44;92.53;;;36.58;;
22849;SDS011;11591;44.792;10.358;2022-12-24T07:37:10;84.75;;;35.33;;
22849;SDS011;11591;44.792;10.358;2022-12-24T07:39:36;86.32;;;35.65;;
22849;SDS011;11591;44.792;10.358;2022-12-24T07:42:02;88.90;;;36.20;;
22849;SDS011;11591;44.792;10.358;2022-12-24T07:44:30;84.38;;;34.03;;
22849;SDS011;11591;44.792;10.358;2022-12-24T07:46:56;75.70;;;32.92;;
22849;SDS011;11591;44.792;10.358;2022-12-24T07:49:22;79.95;;;33.35;;
22849;SDS011;11591;44.792;10.358;2022-12-24T07:51:47;72.57;;;31.92;;
22849;SDS011;11591;44.792;10.358;2022-12-24T07:54:13;79.05;;;33.45;;
22849;SDS011;11591;44.792;10.358;2022-12-24T07:56:39;85.30;;;36.08;;
22849;SDS011;11591;44.792;10.358;2022-12-24T07:59:06;86.43;;;36.03;;
22849;SDS011;11591;44.792;10.358;2022-12-24T08:01:32;85.20;;;35.42;;
22849;SDS011;11591;44.792;10.358;2022-12-24T08:04:01;81.80;;;34.00;;
22849;SDS011;11591;44.792;10.358;2022-12-24T08:06:26;78.65;;;34.67;;
22849;SDS011;11591;44.792;10.358;2022-12-24T08:08:52;83.50;;;36.58;;
22849;SDS011;11591;44.792;10.358;2022-12-24T08:11:18;83.47;;;37.05;;
22849;SDS011;11591;44.792;10.358;2022-12-24T08:13:43;85.63;;;37.65;;
22849;SDS011;11591;44.792;10.358;2022-12-24T08:16:09;93.25;;;37.25;;
22849;SDS011;11591;44.792;10.358;2022-12-24T08:18:35;86.72;;;38.05;;
22849;SDS011;11591;44.792;10.358;2022-12-24T08:21:01;93.93;;;38.00;;
22849;SDS011;11591;44.792;10.358;2022-12-24T08:23:27;87.93;;;35.72;;
22849;SDS011;11591;44.792;10.358;2022-12-24T08:25:52;89.82;;;36.70;;
22849;SDS011;11591;44.792;10.358;2022-12-24T08:28:18;87.82;;;34.97;;
22849;SDS011;11591;44.792;10.358;2022-12-24T08:30:46;88.22;;;36.28;;
22849;SDS011;11591;44.792;10.358;2022-12-24T08:33:13;85.57;;;35.70;;
22849;SDS011;11591;44.792;10.358;2022-12-24T08:35:39;81.97;;;36.20;;
22849;SDS011;11591;44.792;10.358;2022-12-24T08:38:05;85.55;;;36.97;;
22849;SDS011;11591;44.792;10.358;2022-12-24T08:40:31;84.63;;;36.88;;
22849;SDS011;11591;44.792;10.358;2022-12-24T08:43:00;86.40;;;36.65;;
22849;SDS011;11591;44.792;10.358;2022-12-24T08:45:26;82.28;;;36.10;;
22849;SDS011;11591;44.792;10.358;2022-12-24T08:47:52;89.45;;;36.92;;
22849;SDS011;11591;44.792;10.358;2022-12-24T08:50:18;90.63;;;35.95;;
22849;SDS011;11591;44.792;10.358;2022-12-24T08:52:44;85.93;;;35.35;;
22849;SDS011;11591;44.792;10.358;2022-12-24T08:55:09;89.95;;;38.10;;
22849;SDS011;11591;44.792;10.358;2022-12-24T08:57:36;82.57;;;36.88;;
22849;SDS011;11591;44.792;10.358;2022-12-24T09:00:03;102.95;;;40.85;;
22849;SDS011;11591;44.792;10.358;2022-12-24T09:02:30;100.50;;;39.55;;
22849;SDS011;11591;44.792;10.358;2022-12-24T09:04:55;90.35;;;36.92;;
22849;SDS011;11591;44.792;10.358;2022-12-24T09:07:23;86.53;;;37.47;;
22849;SDS011;11591;44.792;10.358;2022-12-24T09:09:49;86.50;;;37.38;;
22849;SDS011;11591;44.792;10.358;2022-12-24T09:12:15;82.80;;;37.38;;
22849;SDS011;11591;44.792;10.358;2022-12-24T09:14:41;89.70;;;38.08;;
22849;SDS011;11591;44.792;10.358;2022-12-24T09:17:07;87.97;;;36.63;;
22849;SDS011;11591;44.792;10.358;2022-12-24T09:19:32;87.43;;;38.25;;
22849;SDS011;11591;44.792;10.358;2022-12-24T09:21:58;100.40;;;38.97;;
22849;SDS011;11591;44.792;10.358;2022-12-24T09:24:24;88.38;;;39.17;;
22849;SDS011;11591;44.792;10.358;2022-12-24T09:26:50;86.90;;;38.85;;
22849;SDS011;11591;44.792;10.358;2022-12-24T09:29:15;97.90;;;40.70;;
22849;SDS011;11591;44.792;10.358;2022-12-24T09:31:41;99.38;;;40.28;;
22849;SDS011;11591;44.792;10.358;2022-12-24T09:34:07;91.53;;;39.95;;
22849;SDS011;11591;44.792;10.358;2022-12-24T09:36:33;95.47;;;40.53;;
22849;SDS011;11591;44.792;10.358;2022-12-24T09:38:59;100.13;;;40.35;;
22849;SDS011;11591;44.792;10.358;2022-12-24T09:41:29;99.68;;;41.22;;
22849;SDS011;11591;44.792;10.358;2022-12-24T09:47:21;104.68;;;41.75;;
22849;SDS011;11591;44.792;10.358;2022-12-24T09:49:54;92.45;;;39.72;;
22849;SDS011;11591;44.792;10.358;2022-12-24T09:52:37;103.70;;;42.00;;
22849;SDS011;11591;44.792;10.358;2022-12-24T09:55:26;98.50;;;43.17;;
22849;SDS011;11591;44.792;10.358;2022-12-24T09:57:56;95.57;;;41.60;;
22849;SDS011;11591;44.792;10.358;2022-12-24T10:00:28;100.97;;;44.28;;
22849;SDS011;11591;44.792;10.358;2022-12-24T10:02:57;97.35;;;42.67;;
22849;SDS011;11591;44.792;10.358;2022-12-24T10:05:33;102.35;;;44.55;;
22849;SDS011;11591;44.792;10.358;2022-12-24T10:10:37;102.18;;;44.33;;
22849;SDS011;11591;44.792;10.358;2022-12-24T10:15:40;105.15;;;45.20;;
22849;SDS011;11591;44.792;10.358;2022-12-24T10:21:17;99.90;;;43.22;;
22849;SDS011;11591;44.792;10.358;2022-12-24T10:29:17;105.05;;;44.80;;
22849;SDS011;11591;44.792;10.358;2022-12-24T10:31:57;113.18;;;45.45;;
22849;SDS011;11591;44.792;10.358;2022-12-24T10:37:43;100.30;;;45.45;;
22849;SDS011;11591;44.792;10.358;2022-12-24T10:40:23;107.90;;;45.22;;
22849;SDS011;11591;44.792;10.358;2022-12-24T10:43:00;108.68;;;43.92;;
22849;SDS011;11591;44.792;10.358;2022-12-24T10:45:28;109.32;;;44.75;;
22849;SDS011;11591;44.792;10.358;2022-12-24T10:48:00;109.68;;;43.95;;
22849;SDS011;11591;44.792;10.358;2022-12-24T10:50:30;115.30;;;45.20;;
22849;SDS011;11591;44.792;10.358;2022-12-24T10:53:22;105.90;;;45.75;;
22849;SDS011;11591;44.792;10.358;2022-12-24T10:55:49;107.82;;;46.35;;
22849;SDS011;11591;44.792;10.358;2022-12-24T10:58:16;111.30;;;45.75;;
22849;SDS011;11591;44.792;10.358;2022-12-24T11:00:50;101.72;;;45.13;;
22849;SDS011;11591;44.792;10.358;2022-12-24T11:05:42;113.10;;;45.70;;
22849;SDS011;11591;44.792;10.358;2022-12-24T11:10:39;106.90;;;45.30;;
22849;SDS011;11591;44.792;10.358;2022-12-24T11:13:28;108.53;;;45.17;;
22849;SDS011;11591;44.792;10.358;2022-12-24T11:16:02;111.95;;;45.53;;
22849;SDS011;11591;44.792;10.358;2022-12-24T11:18:33;109.75;;;44.33;;
22849;SDS011;11591;44.792;10.358;2022-12-24T11:21:01;106.82;;;45.75;;
22849;SDS011;11591;44.792;10.358;2022-12-24T11:23:28;107.80;;;45.00;;
22849;SDS011;11591;44.792;10.358;2022-12-24T11:25:55;120.18;;;47.55;;
22849;SDS011;11591;44.792;10.358;2022-12-24T11:28:23;111.90;;;45.90;;
22849;SDS011;11591;44.792;10.358;2022-12-24T11:30:55;120.80;;;46.88;;
22849;SDS011;11591;44.792;10.358;2022-12-24T11:33:48;115.03;;;45.75;;
22849;SDS011;11591;44.792;10.358;2022-12-24T11:36:19;115.90;;;46.08;;
22849;SDS011;11591;44.792;10.358;2022-12-24T11:38:51;114.07;;;47.63;;
22849;SDS011;11591;44.792;10.358;2022-12-24T11:41:18;109.82;;;45.42;;
22849;SDS011;11591;44.792;10.358;2022-12-24T11:43:47;106.60;;;44.95;;
22849;SDS011;11591;44.792;10.358;2022-12-24T11:46:17;111.50;;;48.92;;
22849;SDS011;11591;44.792;10.358;2022-12-24T11:49:04;111.75;;;47.00;;
22849;SDS011;11591;44.792;10.358;2022-12-24T11:51:37;118.47;;;48.15;;
22849;SDS011;11591;44.792;10.358;2022-12-24T11:56:52;113.03;;;47.65;;
22849;SDS011;11591;44.792;10.358;2022-12-24T11:59:23;121.43;;;48.05;;
22849;SDS011;11591;44.792;10.358;2022-12-24T12:02:31;114.45;;;45.83;;
22849;SDS011;11591;44.792;10.358;2022-12-24T12:08:09;106.53;;;44.85;;
22849;SDS011;11591;44.792;10.358;2022-12-24T12:10:41;113.47;;;47.45;;
22849;SDS011;11591;44.792;10.358;2022-12-24T12:13:13;117.65;;;46.42;;
22849;SDS011;11591;44.792;10.358;2022-12-24T12:18:36;112.65;;;47.10;;
22849;SDS011;11591;44.792;10.358;2022-12-24T12:21:05;116.85;;;48.45;;
22849;SDS011;11591;44.792;10.358;2022-12-24T12:23:56;111.95;;;45.70;;
22849;SDS011;11591;44.792;10.358;2022-12-24T12:26:26;113.45;;;46.63;;
22849;SDS011;11591;44.792;10.358;2022-12-24T12:28:57;124.45;;;47.30;;
22849;SDS011;11591;44.792;10.358;2022-12-24T12:31:33;119.68;;;48.85;;
22849;SDS011;11591;44.792;10.358;2022-12-24T12:34:13;123.25;;;48.63;;
22849;SDS011;11591;44.792;10.358;2022-12-24T12:36:48;126.10;;;50.55;;
22849;SDS011;11591;44.792;10.358;2022-12-24T12:39:18;132.48;;;51.78;;
22849;SDS011;11591;44.792;10.358;2022-12-24T12:41:54;126.57;;;52.65;;
22849;SDS011;11591;44.792;10.358;2022-12-24T12:44:38;127.20;;;52.10;;
22849;SDS011;11591;44.792;10.358;2022-12-24T12:55:05;132.00;;;53.00;;
22849;SDS011;11591;44.792;10.358;2022-12-24T12:57:40;127.20;;;52.28;;
22849;SDS011;11591;44.792;10.358;2022-12-24T13:00:08;130.65;;;53.78;;
22849;SDS011;11591;44.792;10.358;2022-12-24T13:02:40;136.68;;;52.15;;
22849;SDS011;11591;44.792;10.358;2022-12-24T13:21:49;132.20;;;54.65;;
22849;SDS011;11591;44.792;10.358;2022-12-24T13:24:25;134.80;;;53.67;;
22849;SDS011;11591;44.792;10.358;2022-12-24T13:34:49;131.30;;;52.92;;
22849;SDS011;11591;44.792;10.358;2022-12-24T13:53:21;135.07;;;53.60;;
22849;SDS011;11591;44.792;10.358;2022-12-24T13:56:09;138.13;;;54.75;;
22849;SDS011;11591;44.792;10.358;2022-12-24T13:58:52;133.35;;;53.40;;
22849;SDS011;11591;44.792;10.358;2022-12-24T14:01:34;127.40;;;52.22;;
22849;SDS011;11591;44.792;10.358;2022-12-24T14:04:05;132.02;;;53.65;;
22849;SDS011;11591;44.792;10.358;2022-12-24T14:06:35;131.77;;;54.70;;
22849;SDS011;11591;44.792;10.358;2022-12-24T14:09:13;146.82;;;56.85;;
22849;SDS011;11591;44.792;10.358;2022-12-24T14:17:00;138.88;;;56.38;;
22849;SDS011;11591;44.792;10.358;2022-12-24T14:19:49;144.63;;;55.35;;
22849;SDS011;11591;44.792;10.358;2022-12-24T14:24:55;139.52;;;55.50;;
22849;SDS011;11591;44.792;10.358;2022-12-24T14:27:31;134.82;;;56.13;;
22849;SDS011;11591;44.792;10.358;2022-12-24T14:32:39;135.23;;;54.65;;
22849;SDS011;11591;44.792;10.358;2022-12-24T14:35:14;136.60;;;55.15;;
22849;SDS011;11591;44.792;10.358;2022-12-24T14:37:40;130.63;;;54.00;;
22849;SDS011;11591;44.792;10.358;2022-12-24T14:40:17;136.45;;;55.47;;
22849;SDS011;11591;44.792;10.358;2022-12-24T14:53:38;145.32;;;57.72;;
22849;SDS011;11591;44.792;10.358;2022-12-24T14:56:19;135.02;;;53.70;;
22849;SDS011;11591;44.792;10.358;2022-12-24T14:58:46;137.55;;;55.33;;
22849;SDS011;11591;44.792;10.358;2022-12-24T15:01:31;135.82;;;54.90;;
22849;SDS011;11591;44.792;10.358;2022-12-24T15:04:01;138.73;;;55.83;;
22849;SDS011;11591;44.792;10.358;2022-12-24T15:06:33;152.35;;;56.83;;
22849;SDS011;11591;44.792;10.358;2022-12-24T15:09:29;131.60;;;54.70;;
22849;SDS011;11591;44.792;10.358;2022-12-24T15:11:58;137.95;;;53.88;;
22849;SDS011;11591;44.792;10.358;2022-12-24T15:14:27;138.00;;;55.55;;
22849;SDS011;11591;44.792;10.358;2022-12-24T15:16:58;144.60;;;55.38;;
22849;SDS011;11591;44.792;10.358;2022-12-24T15:19:36;148.85;;;59.65;;
22849;SDS011;11591;44.792;10.358;2022-12-24T15:22:09;151.60;;;57.53;;
22849;SDS011;11591;44.792;10.358;2022-12-24T15:24:45;146.70;;;56.75;;
22849;SDS011;11591;44.792;10.358;2022-12-24T15:27:22;142.27;;;54.95;;
22849;SDS011;11591;44.792;10.358;2022-12-24T15:29:54;141.05;;;56.40;;
22849;SDS011;11591;44.792;10.358;2022-12-24T15:32:21;146.15;;;56.05;;
22849;SDS011;11591;44.792;10.358;2022-12-24T15:34:49;137.27;;;55.53;;
22849;SDS011;11591;44.792;10.358;2022-12-24T15:37:20;151.73;;;56.97;;
22849;SDS011;11591;44.792;10.358;2022-12-24T15:39:52;157.75;;;59.72;;
22849;SDS011;11591;44.792;10.358;2022-12-24T15:42:19;138.48;;;57.80;;
22849;SDS011;11591;44.792;10.358;2022-12-24T15:47:32;146.15;;;56.05;;
22849;SDS011;11591;44.792;10.358;2022-12-24T15:50:17;153.30;;;57.70;;
22849;SDS011;11591;44.792;10.358;2022-12-24T15:53:12;153.10;;;57.38;;
22849;SDS011;11591;44.792;10.358;2022-12-24T15:55:46;143.98;;;56.67;;
22849;SDS011;11591;44.792;10.358;2022-12-24T15:58:37;158.60;;;58.97;;
22849;SDS011;11591;44.792;10.358;2022-12-24T16:03:33;145.75;;;57.30;;
22849;SDS011;11591;44.792;10.358;2022-12-24T16:06:05;148.50;;;58.72;;
22849;SDS011;11591;44.792;10.358;2022-12-24T16:08:39;142.63;;;57.90;;
22849;SDS011;11591;44.792;10.358;2022-12-24T16:11:14;158.52;;;59.95;;
22849;SDS011;11591;44.792;10.358;2022-12-24T16:14:11;149.25;;;58.78;;
22849;SDS011;11591;44.792;10.358;2022-12-24T16:16:50;154.57;;;59.47;;
22849;SDS011;11591;44.792;10.358;2022-12-24T16:19:22;154.55;;;58.85;;
22849;SDS011;11591;44.792;10.358;2022-12-24T16:21:58;153.18;;;61.28;;
22849;SDS011;11591;44.792;10.358;2022-12-24T16:24:48;150.60;;;57.50;;
22849;SDS011;11591;44.792;10.358;2022-12-24T16:27:16;154.70;;;60.55;;
22849;SDS011;11591;44.792;10.358;2022-12-24T16:29:42;153.82;;;62.13;;